Time;durP1;ratioP1;P1;durP2;ratioP2;P2;SDS_P1;SDS_P2;PMS_P1;PMS_P2;Temp;Humidity;BMP_temperature;BMP_pressure;BME280_temperature;BME280_humidity;BME280_pressure;Samples;Min_cycle;Max_cycle;Signal;HPM_P1;HPM_P2
2021/05/20 00:02:29;;;;;;;2.03;1.10;;;21.80;49.10;;;;;;6316623;28;20028;-67
2021/05/20 00:05:30;;;;;;;1.90;1.10;;;21.80;49.10;;;;;;6305059;28;20485;-67
2021/05/20 00:08:31;;;;;;;2.05;1.13;;;21.80;49.20;;;;;;6292785;28;20054;-68
2021/05/20 00:11:32;;;;;;;1.83;1.15;;;21.80;49.20;;;;;;6292775;28;20031;-68
2021/05/20 00:14:32;;;;;;;2.22;1.27;;;21.80;49.20;;;;;;6292227;28;20701;-68
2021/05/20 00:17:33;;;;;;;2.38;1.13;;;21.80;49.90;;;;;;6290840;28;20047;-68
2021/05/20 00:20:34;;;;;;;1.27;0.90;;;21.80;49.20;;;;;;6285282;28;20424;-68
2021/05/20 00:23:34;;;;;;;1.30;0.90;;;21.80;49.20;;;;;;6292670;28;20032;-68
2021/05/20 00:26:35;;;;;;;1.95;1.10;;;21.80;49.20;;;;;;6309097;28;20063;-68
2021/05/20 00:29:35;;;;;;;1.80;1.02;;;21.80;49.20;;;;;;6317249;28;20028;-68
2021/05/20 00:32:37;;;;;;;2.13;1.25;;;21.80;49.30;;;;;;6317222;28;20476;-68
2021/05/20 00:35:38;;;;;;;1.25;1.05;;;21.80;49.20;;;;;;6309671;28;20431;-67
2021/05/20 00:38:38;;;;;;;1.27;0.98;;;21.80;49.30;;;;;;6292352;28;20096;-68
2021/05/20 00:41:39;;;;;;;1.05;0.82;;;21.80;49.30;;;;;;6292003;28;20025;-68
2021/05/20 00:44:57;;;;;;;1.65;1.00;;;21.80;49.30;;;;;;6291980;28;20378;-68
2021/05/20 00:47:57;;;;;;;1.17;0.95;;;21.80;49.30;;;;;;6291832;28;20029;-68
2021/05/20 00:50:58;;;;;;;1.42;1.00;;;21.80;49.30;;;;;;6291557;28;20078;-68
2021/05/20 00:53:59;;;;;;;1.10;0.77;;;21.80;49.30;;;;;;6291600;28;20162;-68
2021/05/20 00:56:59;;;;;;;1.30;1.00;;;21.80;49.30;;;;;;6296697;28;20032;-68
2021/05/20 01:00:12;;;;;;;1.30;0.73;;;21.80;49.30;;;;;;6292037;28;20631;-68
2021/05/20 01:03:12;;;;;;;2.10;1.30;;;21.80;49.40;;;;;;6291936;28;20021;-67
2021/05/20 01:06:13;;;;;;;1.05;0.90;;;21.80;49.30;;;;;;6294123;28;20493;-67
2021/05/20 01:09:13;;;;;;;1.23;0.80;;;21.80;49.30;;;;;;6291476;28;20070;-68
2021/05/20 01:12:14;;;;;;;1.63;0.88;;;21.80;49.40;;;;;;6302435;28;20041;-68
2021/05/20 01:15:23;;;;;;;1.35;0.82;;;21.80;49.30;;;;;;6316541;28;20015;-68
2021/05/20 01:18:24;;;;;;;1.85;0.90;;;21.80;49.40;;;;;;6275410;28;20492;-68
2021/05/20 01:21:24;;;;;;;2.63;1.13;;;21.80;49.40;;;;;;6276527;28;20035;-68
2021/05/20 01:24:25;;;;;;;1.10;0.90;;;21.80;49.40;;;;;;6315524;28;20028;-68
2021/05/20 01:27:26;;;;;;;1.75;0.90;;;21.80;49.40;;;;;;6314769;28;20024;-67
2021/05/20 01:30:27;;;;;;;1.00;0.90;;;21.80;49.40;;;;;;6315162;28;20096;-68
2021/05/20 01:33:28;;;;;;;1.60;1.08;;;21.80;49.40;;;;;;6293295;28;20485;-68
2021/05/20 01:36:30;;;;;;;1.65;1.00;;;21.80;49.40;;;;;;6298678;28;20016;-68
2021/05/20 01:39:30;;;;;;;1.45;0.75;;;21.80;49.40;;;;;;6321519;28;20036;-67
2021/05/20 01:42:31;;;;;;;1.13;0.93;;;21.80;49.40;;;;;;6321347;28;20034;-67
2021/05/20 01:45:31;;;;;;;1.02;0.70;;;21.80;49.40;;;;;;6320190;28;20026;-68
2021/05/20 01:48:44;;;;;;;1.30;0.90;;;21.80;49.40;;;;;;6321211;28;20069;-68
2021/05/20 01:51:44;;;;;;;1.25;1.00;;;21.80;49.40;;;;;;6319022;28;20048;-68
2021/05/20 01:54:45;;;;;;;1.27;0.90;;;21.80;49.40;;;;;;6294589;28;20047;-68
2021/05/20 01:57:45;;;;;;;1.20;0.90;;;21.80;49.40;;;;;;6295965;28;20067;-68
2021/05/20 02:00:46;;;;;;;1.05;0.80;;;21.80;49.40;;;;;;6294315;28;20086;-68
2021/05/20 02:03:47;;;;;;;1.33;0.70;;;21.80;49.40;;;;;;6312116;28;20024;-68
2021/05/20 02:06:47;;;;;;;1.75;0.80;;;21.80;49.50;;;;;;6321022;28;20036;-68
2021/05/20 02:09:49;;;;;;;0.95;0.70;;;21.80;49.50;;;;;;6320467;28;20032;-68
2021/05/20 02:12:49;;;;;;;1.02;0.80;;;21.80;49.50;;;;;;6320639;28;20134;-68
2021/05/20 02:15:50;;;;;;;1.17;0.93;;;21.80;49.50;;;;;;6320165;28;20020;-68
2021/05/20 02:18:50;;;;;;;1.00;0.80;;;21.80;49.50;;;;;;6312453;28;20028;-68
2021/05/20 02:21:51;;;;;;;1.45;0.75;;;21.80;49.50;;;;;;6308813;28;20104;-68
2021/05/20 02:24:51;;;;;;;1.10;0.70;;;21.80;49.50;;;;;;6295078;28;20028;-68
2021/05/20 02:27:52;;;;;;;1.95;0.60;;;21.80;49.50;;;;;;6301602;28;20036;-68
2021/05/20 02:30:53;;;;;;;0.75;0.68;;;21.80;49.50;;;;;;6320220;28;20061;-68
2021/05/20 02:33:53;;;;;;;1.50;0.70;;;21.80;49.50;;;;;;6319863;28;20327;-67
2021/05/20 02:36:54;;;;;;;1.55;0.90;;;21.80;49.50;;;;;;6318926;28;20056;-68
2021/05/20 02:39:54;;;;;;;0.80;0.70;;;21.80;49.50;;;;;;6318414;28;20043;-68
2021/05/20 02:42:55;;;;;;;1.00;0.70;;;21.80;49.50;;;;;;6320079;28;20082;-68
2021/05/20 02:45:55;;;;;;;1.10;0.70;;;21.80;49.50;;;;;;6319936;28;20041;-68
2021/05/20 02:48:56;;;;;;;0.60;0.60;;;21.80;49.50;;;;;;6319408;28;20111;-68
2021/05/20 02:51:57;;;;;;;1.05;0.77;;;21.80;49.60;;;;;;6320047;28;20052;-67
2021/05/20 02:54:57;;;;;;;0.50;0.50;;;21.80;49.50;;;;;;6319368;28;20024;-68
2021/05/20 02:58:00;;;;;;;0.85;0.70;;;21.80;49.50;;;;;;6303438;28;20016;-68
2021/05/20 03:01:01;;;;;;;0.70;0.70;;;21.80;49.50;;;;;;6319429;28;20016;-68
2021/05/20 03:04:02;;;;;;;1.13;0.80;;;21.80;50.30;;;;;;6319410;28;20062;-68
2021/05/20 03:07:05;;;;;;;1.02;0.80;;;21.80;49.50;;;;;;6318122;28;20032;-68
2021/05/20 03:10:07;;;;;;;0.60;0.50;;;21.80;49.50;;;;;;6319406;28;20097;-67
2021/05/20 03:13:08;;;;;;;0.65;0.55;;;21.80;49.50;;;;;;6318800;28;20336;-67
2021/05/20 03:16:09;;;;;;;0.80;0.70;;;21.80;49.40;;;;;;6316697;28;20111;-67
2021/05/20 03:19:10;;;;;;;0.75;0.70;;;21.80;49.50;;;;;;6288387;28;20025;-67
2021/05/20 03:22:10;;;;;;;0.70;0.50;;;21.80;49.50;;;;;;6287414;28;20112;-67
2021/05/20 03:25:11;;;;;;;0.85;0.70;;;21.80;49.50;;;;;;6308620;28;20407;-67
2021/05/20 03:28:12;;;;;;;0.65;0.60;;;21.80;49.60;;;;;;6317800;28;20489;-67
2021/05/20 03:31:13;;;;;;;1.08;0.90;;;21.80;49.60;;;;;;6297093;28;20028;-67
2021/05/20 03:34:14;;;;;;;0.73;0.70;;;21.80;49.50;;;;;;6298747;28;20107;-67
2021/05/20 03:37:14;;;;;;;0.45;0.40;;;21.80;49.60;;;;;;6319133;28;20335;-66
2021/05/20 03:40:15;;;;;;;0.80;0.75;;;21.80;49.50;;;;;;6318459;28;20028;-67
2021/05/20 03:43:15;;;;;;;0.95;0.60;;;21.80;49.60;;;;;;6318898;28;20032;-67
2021/05/20 03:46:16;;;;;;;0.55;0.55;;;21.80;49.60;;;;;;6317077;28;20040;-66
2021/05/20 03:49:17;;;;;;;0.82;0.60;;;21.80;49.50;;;;;;6315010;28;20025;-67
2021/05/20 03:52:18;;;;;;;0.77;0.70;;;21.80;49.60;;;;;;6293398;28;20056;-67
2021/05/20 03:55:18;;;;;;;0.68;0.60;;;21.80;49.60;;;;;;6292540;28;20039;-67
2021/05/20 03:58:19;;;;;;;0.63;0.52;;;21.80;49.60;;;;;;6292997;28;20352;-67
2021/05/20 04:01:19;;;;;;;0.88;0.65;;;21.80;49.60;;;;;;6305450;28;20103;-67
2021/05/20 04:04:20;;;;;;;1.42;0.60;;;21.80;49.50;;;;;;6294671;28;20478;-67
2021/05/20 04:07:21;;;;;;;0.73;0.60;;;21.80;49.60;;;;;;6316865;28;20028;-67
2021/05/20 04:10:21;;;;;;;1.08;0.57;;;21.80;49.70;;;;;;6317994;28;20024;-67
2021/05/20 04:13:29;;;;;;;0.47;0.47;;;21.80;49.60;;;;;;6314565;28;20107;-67
2021/05/20 04:16:29;;;;;;;3.13;0.60;;;21.70;49.50;;;;;;6292480;28;20049;-67
2021/05/20 04:19:30;;;;;;;0.68;0.50;;;21.80;49.60;;;;;;6292993;28;20032;-67
2021/05/20 04:22:31;;;;;;;0.73;0.40;;;21.80;49.70;;;;;;6315812;28;20102;-67
2021/05/20 04:25:32;;;;;;;0.70;0.60;;;21.80;49.60;;;;;;6318192;28;20035;-67
2021/05/20 04:28:32;;;;;;;0.80;0.65;;;21.80;49.60;;;;;;6316434;28;20173;-67
2021/05/20 04:31:33;;;;;;;0.50;0.50;;;21.80;49.70;;;;;;6316121;28;20123;-67
2021/05/20 04:34:35;;;;;;;0.50;0.50;;;21.80;49.60;;;;;;6317430;28;20116;-67
2021/05/20 04:37:35;;;;;;;0.70;0.70;;;21.80;49.70;;;;;;6317333;28;20118;-67
2021/05/20 04:40:38;;;;;;;0.40;0.40;;;21.80;49.50;;;;;;6316274;28;20487;-67
2021/05/20 04:43:39;;;;;;;0.90;0.70;;;21.80;49.70;;;;;;6316241;28;20020;-67
2021/05/20 04:46:39;;;;;;;0.50;0.50;;;21.80;49.70;;;;;;6306515;28;20035;-67
2021/05/20 04:49:40;;;;;;;0.73;0.60;;;21.80;49.70;;;;;;6299209;28;20024;-67
2021/05/20 04:52:41;;;;;;;0.60;0.50;;;21.80;49.70;;;;;;6293023;28;20462;-66
2021/05/20 04:55:42;;;;;;;0.50;0.50;;;21.80;49.70;;;;;;6295051;28;20039;-67
2021/05/20 04:58:42;;;;;;;0.82;0.63;;;21.80;49.70;;;;;;6292149;28;20024;-67
2021/05/20 05:01:43;;;;;;;0.45;0.43;;;21.80;49.70;;;;;;6292007;28;20025;-67
2021/05/20 05:04:43;;;;;;;0.60;0.52;;;21.80;50.40;;;;;;6292153;28;20472;-66
2021/05/20 05:07:44;;;;;;;0.57;0.57;;;21.80;49.70;;;;;;6307164;28;20069;-66
2021/05/20 05:10:45;;;;;;;0.75;0.52;;;21.80;49.70;;;;;;6316586;28;20043;-67
2021/05/20 05:13:45;;;;;;;1.23;0.60;;;21.80;49.70;;;;;;6316846;28;20039;-67
2021/05/20 05:16:46;;;;;;;0.40;0.40;;;21.80;49.70;;;;;;6301570;28;20036;-67
2021/05/20 05:19:46;;;;;;;0.43;0.43;;;21.80;49.70;;;;;;6266986;28;20025;-66
2021/05/20 05:22:47;;;;;;;0.55;0.55;;;21.80;49.70;;;;;;6303466;28;20031;-67
2021/05/20 05:25:49;;;;;;;0.60;0.60;;;21.80;49.70;;;;;;6316943;28;20539;-67
2021/05/20 05:28:49;;;;;;;0.55;0.55;;;21.80;49.70;;;;;;6292790;28;20016;-67
2021/05/20 05:31:50;;;;;;;0.52;0.52;;;21.80;49.70;;;;;;6298020;28;20042;-67
2021/05/20 05:34:51;;;;;;;0.50;0.50;;;21.80;49.60;;;;;;6316652;28;20115;-67
2021/05/20 05:37:51;;;;;;;0.75;0.52;;;21.80;49.70;;;;;;6315089;28;20016;-67
2021/05/20 05:40:52;;;;;;;0.60;0.52;;;21.80;49.70;;;;;;6315066;28;20324;-67
2021/05/20 05:43:53;;;;;;;0.68;0.40;;;21.80;49.70;;;;;;6294245;28;20034;-67
2021/05/20 05:46:53;;;;;;;0.70;0.50;;;21.80;49.70;;;;;;6296170;28;20032;-67
2021/05/20 05:49:54;;;;;;;0.65;0.38;;;21.80;49.70;;;;;;6316594;28;20040;-66
2021/05/20 05:52:55;;;;;;;0.70;0.60;;;21.80;49.70;;;;;;6316448;28;20401;-67
2021/05/20 05:55:56;;;;;;;0.47;0.45;;;21.80;49.70;;;;;;6314307;28;20016;-67
2021/05/20 05:58:57;;;;;;;0.40;0.30;;;21.80;49.70;;;;;;6310565;28;20020;-67
2021/05/20 06:01:58;;;;;;;2.15;0.50;;;21.80;49.80;;;;;;6292985;28;20070;-67
2021/05/20 06:04:59;;;;;;;0.60;0.50;;;21.80;49.70;;;;;;6304577;28;20482;-67
2021/05/20 06:08:01;;;;;;;0.93;0.60;;;21.80;49.70;;;;;;6289034;28;20524;-67
2021/05/20 06:11:01;;;;;;;0.60;0.60;;;21.80;49.80;;;;;;6269079;28;20508;-67
2021/05/20 06:14:05;;;;;;;0.50;0.50;;;21.80;49.70;;;;;;6307409;28;20040;-67
2021/05/20 06:17:07;;;;;;;0.70;0.50;;;21.80;49.70;;;;;;6311621;28;20167;-67
2021/05/20 06:20:09;;;;;;;0.55;0.55;;;21.80;49.70;;;;;;6322469;28;20028;-67
2021/05/20 06:23:09;;;;;;;0.70;0.50;;;21.80;49.80;;;;;;6324314;28;20058;-67
2021/05/20 06:26:10;;;;;;;0.45;0.45;;;21.80;49.80;;;;;;6324017;28;20477;-67
2021/05/20 06:29:10;;;;;;;0.80;0.60;;;21.80;49.80;;;;;;6305414;28;20044;-67
2021/05/20 06:32:11;;;;;;;0.60;0.50;;;21.80;49.80;;;;;;6298871;28;20063;-67
2021/05/20 06:35:12;;;;;;;0.75;0.60;;;21.80;49.80;;;;;;6288154;28;20390;-67
2021/05/20 06:38:13;;;;;;;0.80;0.60;;;21.80;49.80;;;;;;6305705;28;20036;-67
2021/05/20 06:41:14;;;;;;;0.30;0.30;;;21.80;49.80;;;;;;6322996;28;20436;-67
2021/05/20 06:44:14;;;;;;;0.30;0.30;;;21.80;49.80;;;;;;6322904;28;20032;-67
2021/05/20 06:47:15;;;;;;;0.68;0.50;;;21.80;49.80;;;;;;6322823;28;20074;-67
2021/05/20 06:50:15;;;;;;;0.47;0.40;;;21.80;49.80;;;;;;6296965;28;20134;-67
2021/05/20 06:53:19;;;;;;;0.43;0.43;;;21.80;49.80;;;;;;6304522;28;20032;-67
2021/05/20 06:56:22;;;;;;;0.40;0.40;;;21.80;49.80;;;;;;6317223;28;20012;-67
2021/05/20 07:02:43;;;;;;;0.40;0.40;;;21.80;49.80;;;;;;6298295;28;20028;-67
2021/05/20 07:05:43;;;;;;;0.50;0.50;;;21.80;49.80;;;;;;6322832;28;20098;-67
2021/05/20 07:08:44;;;;;;;0.60;0.57;;;21.80;49.80;;;;;;6317575;28;20025;-67
2021/05/20 07:11:45;;;;;;;0.50;0.50;;;21.80;49.80;;;;;;6297306;28;20029;-67
2021/05/20 07:14:45;;;;;;;0.80;0.60;;;21.80;49.80;;;;;;6310257;28;20039;-67
2021/05/20 07:17:46;;;;;;;0.47;0.47;;;21.80;49.90;;;;;;6306752;28;20082;-67
2021/05/20 07:20:46;;;;;;;0.40;0.40;;;21.80;49.80;;;;;;6296839;28;20532;-66
2021/05/20 07:23:47;;;;;;;0.50;0.45;;;21.80;49.80;;;;;;6300499;28;20049;-67
2021/05/20 07:26:52;;;;;;;0.45;0.40;;;21.80;49.80;;;;;;6323259;28;20469;-67
2021/05/20 07:29:52;;;;;;;0.50;0.50;;;21.80;49.80;;;;;;6321396;28;20074;-67
2021/05/20 07:32:53;;;;;;;0.40;0.40;;;21.80;49.90;;;;;;6306814;28;20054;-68
2021/05/20 07:35:53;;;;;;;1.25;0.80;;;21.80;49.90;;;;;;6285683;28;20028;-66
2021/05/20 07:38:55;;;;;;;3.13;0.80;;;21.80;48.60;;;;;;6275114;28;20036;-66
2021/05/20 07:41:56;;;;;;;0.50;0.50;;;21.80;47.60;;;;;;6297257;28;20032;-66
2021/05/20 07:44:58;;;;;;;0.93;0.52;;;21.80;49.00;;;;;;6298055;28;20024;-66
2021/05/20 07:48:13;;;;;;;1.15;0.57;;;21.80;49.10;;;;;;6297227;28;20020;-66
2021/05/20 07:51:20;;;;;;;1.10;0.63;;;21.80;49.20;;;;;;6298638;28;20509;-65
2021/05/20 07:54:24;;;;;;;1.98;0.60;;;21.80;49.50;;;;;;6281305;28;20493;-66
2021/05/20 07:57:25;;;;;;;0.55;0.50;;;21.80;49.50;;;;;;6320147;28;20086;-65
2021/05/20 08:00:29;;;;;;;1.27;0.60;;;21.80;49.50;;;;;;6321046;28;20024;-64
2021/05/20 08:03:40;;;;;;;1.98;0.60;;;21.80;49.50;;;;;;6321245;28;20062;-66
2021/05/20 08:07:26;;;;;;;0.65;0.55;;;21.80;49.50;;;;;;6313622;28;20025;-66
2021/05/20 08:13:18;;;;;;;0.85;0.40;;;21.80;49.60;;;;;;6320447;28;20500;-66
2021/05/20 08:16:19;;;;;;;1.60;0.50;;;21.80;49.50;;;;;;6313087;28;20041;-66
2021/05/20 08:19:20;;;;;;;1.38;0.60;;;21.80;49.60;;;;;;6270939;28;20021;-66
2021/05/20 08:22:21;;;;;;;0.85;0.55;;;21.80;49.60;;;;;;6312265;28;20409;-66
2021/05/20 08:25:21;;;;;;;1.42;0.50;;;21.80;49.60;;;;;;6302665;28;20043;-66
2021/05/20 08:28:22;;;;;;;0.75;0.43;;;21.80;49.60;;;;;;6300503;28;20029;-66
2021/05/20 08:31:23;;;;;;;1.05;0.40;;;21.80;49.60;;;;;;6300552;28;20093;-66
2021/05/20 08:34:24;;;;;;;0.98;0.40;;;21.80;49.60;;;;;;6318789;28;20021;-67
2021/05/20 08:37:25;;;;;;;0.88;0.55;;;21.80;49.60;;;;;;6316453;28;20024;-66
2021/05/20 08:40:26;;;;;;;1.02;0.50;;;21.80;49.60;;;;;;6311415;28;20153;-66
2021/05/20 08:43:26;;;;;;;3.42;0.60;;;21.80;49.60;;;;;;6302402;28;20032;-66
2021/05/20 08:46:27;;;;;;;0.52;0.45;;;21.80;49.60;;;;;;6300541;28;20024;-66
2021/05/20 08:49:27;;;;;;;1.42;0.40;;;21.80;49.60;;;;;;6292787;28;20013;-66
2021/05/20 08:52:28;;;;;;;0.70;0.40;;;21.80;49.60;;;;;;6317547;28;20036;-66
2021/05/20 08:55:32;;;;;;;0.93;0.52;;;21.80;49.70;;;;;;6317739;28;20020;-66
2021/05/20 08:58:32;;;;;;;0.68;0.45;;;21.80;49.60;;;;;;6318573;28;20734;-66
2021/05/20 09:01:43;;;;;;;0.57;0.57;;;21.80;49.70;;;;;;6317870;28;20035;-66
2021/05/20 09:04:43;;;;;;;1.27;0.40;;;21.80;49.70;;;;;;6318221;28;20024;-66
2021/05/20 09:07:56;;;;;;;0.95;0.50;;;21.80;49.70;;;;;;6293831;28;20059;-66
2021/05/20 09:10:56;;;;;;;0.70;0.50;;;21.80;49.70;;;;;;6293364;28;20272;-66
2021/05/20 09:14:05;;;;;;;0.47;0.40;;;21.80;49.70;;;;;;6311807;28;20502;-66
2021/05/20 09:17:13;;;;;;;0.60;0.50;;;21.80;49.50;;;;;;6297618;28;20036;-66
2021/05/20 09:20:15;;;;;;;0.68;0.50;;;21.80;49.70;;;;;;6267234;28;20107;-66
2021/05/20 09:23:21;;;;;;;1.20;0.40;;;21.80;49.70;;;;;;6296973;28;20578;-65
2021/05/20 09:26:35;;;;;;;0.60;0.40;;;21.80;49.60;;;;;;6297487;28;20108;-65
2021/05/20 09:29:39;;;;;;;0.40;0.40;;;21.80;49.70;;;;;;6286643;28;20130;-65
2021/05/20 09:32:43;;;;;;;0.40;0.40;;;21.80;49.70;;;;;;6310306;28;20020;-65
2021/05/20 09:35:49;;;;;;;0.60;0.40;;;21.80;50.00;;;;;;6319892;28;20052;-65
2021/05/20 09:39:07;;;;;;;0.68;0.50;;;21.80;49.70;;;;;;6319794;28;20469;-65
2021/05/20 09:42:14;;;;;;;0.40;0.40;;;21.80;49.70;;;;;;6305598;28;20485;-65
2021/05/20 09:45:19;;;;;;;0.80;0.50;;;21.80;49.70;;;;;;6293517;28;20044;-65
2021/05/20 09:48:21;;;;;;;0.32;0.32;;;21.80;49.70;;;;;;6293961;28;20025;-65
2021/05/20 09:51:25;;;;;;;0.63;0.50;;;21.80;49.70;;;;;;6298817;28;20044;-67
2021/05/20 09:54:42;;;;;;;0.50;0.50;;;21.80;49.70;;;;;;6320838;28;20109;-67
2021/05/20 09:57:44;;;;;;;1.02;0.45;;;21.80;49.80;;;;;;6311378;28;20081;-66
2021/05/20 10:00:45;;;;;;;2.15;0.60;;;21.80;49.70;;;;;;6298819;28;20074;-66
2021/05/20 10:03:54;;;;;;;0.50;0.50;;;21.80;49.70;;;;;;6298033;28;20037;-66
2021/05/20 10:06:57;;;;;;;0.65;0.50;;;21.80;49.70;;;;;;6298835;28;20512;-66
2021/05/20 10:09:59;;;;;;;0.30;0.30;;;21.80;49.70;;;;;;6296975;28;20166;-66
2021/05/20 10:13:03;;;;;;;1.33;0.40;;;21.80;49.70;;;;;;6311023;28;20021;-66
2021/05/20 10:16:04;;;;;;;1.02;0.50;;;21.80;49.70;;;;;;6321582;28;20400;-66
2021/05/20 10:19:06;;;;;;;0.40;0.40;;;21.80;49.70;;;;;;6302059;28;20432;-66
2021/05/20 10:22:08;;;;;;;0.40;0.40;;;21.80;49.70;;;;;;6304169;28;20097;-66
2021/05/20 10:25:10;;;;;;;0.30;0.30;;;21.80;49.70;;;;;;6323743;28;20370;-67
2021/05/20 10:28:12;;;;;;;0.50;0.50;;;21.80;49.70;;;;;;6304953;28;20048;-66
2021/05/20 10:31:13;;;;;;;0.57;0.50;;;21.80;49.70;;;;;;6272916;28;20021;-66
2021/05/20 10:34:17;;;;;;;0.50;0.50;;;21.80;49.70;;;;;;6298397;28;20016;-66
2021/05/20 10:37:25;;;;;;;0.40;0.32;;;21.80;49.80;;;;;;6296866;28;20086;-66
2021/05/20 10:40:27;;;;;;;0.30;0.30;;;21.80;49.80;;;;;;6272790;28;20105;-67
2021/05/20 10:43:29;;;;;;;0.47;0.40;;;21.80;49.80;;;;;;6297691;28;20632;-66
2021/05/20 10:46:30;;;;;;;0.35;0.30;;;21.80;49.80;;;;;;6322501;28;20473;-66
2021/05/20 10:49:45;;;;;;;0.63;0.35;;;21.80;49.80;;;;;;6321262;28;20035;-66
2021/05/20 10:52:46;;;;;;;0.68;0.47;;;21.80;49.80;;;;;;6314123;28;20036;-66
2021/05/20 10:55:47;;;;;;;1.00;0.30;;;21.80;49.80;;;;;;6297522;28;20035;-66
2021/05/20 10:58:48;;;;;;;0.80;0.40;;;21.80;49.80;;;;;;6307682;28;20169;-66
2021/05/20 11:01:49;;;;;;;0.60;0.40;;;21.80;49.80;;;;;;6321994;28;20039;-66
2021/05/20 11:04:49;;;;;;;0.60;0.38;;;21.80;49.80;;;;;;6320653;28;20453;-65
2021/05/20 11:07:51;;;;;;;0.40;0.40;;;21.80;49.80;;;;;;6316750;28;20028;-66
2021/05/20 11:10:51;;;;;;;0.60;0.40;;;21.80;49.90;;;;;;6322342;28;20028;-66
2021/05/20 11:13:53;;;;;;;0.40;0.35;;;21.80;49.90;;;;;;6314964;28;20110;-66
2021/05/20 11:16:54;;;;;;;0.70;0.50;;;21.80;49.80;;;;;;6321418;28;20031;-66
2021/05/20 11:20:24;;;;;;;0.32;0.32;;;21.80;49.90;;;;;;6314736;28;20026;-66
2021/05/20 11:23:26;;;;;;;0.75;0.40;;;21.80;49.90;;;;;;6305298;28;20072;-66
2021/05/20 11:26:33;;;;;;;0.22;0.22;;;21.80;49.90;;;;;;6321747;28;20027;-66
2021/05/20 11:29:36;;;;;;;0.30;0.30;;;21.80;49.90;;;;;;6308097;28;20036;-66
2021/05/20 11:32:37;;;;;;;1.55;0.30;;;21.80;49.90;;;;;;6295803;28;20017;-65
2021/05/20 11:35:56;;;;;;;0.50;0.50;;;21.80;49.90;;;;;;6309424;28;20036;-66
2021/05/20 11:38:59;;;;;;;0.43;0.30;;;21.80;49.90;;;;;;6305470;28;20036;-66
2021/05/20 11:42:03;;;;;;;0.30;0.30;;;21.80;49.90;;;;;;6287386;28;20474;-66
2021/05/20 11:45:05;;;;;;;0.20;0.20;;;21.80;49.90;;;;;;6308793;28;20139;-66
2021/05/20 11:48:06;;;;;;;0.50;0.40;;;21.80;49.90;;;;;;6320263;28;20024;-65
2021/05/20 11:51:07;;;;;;;0.50;0.50;;;21.80;49.90;;;;;;6320335;28;20056;-66
2021/05/20 11:54:11;;;;;;;0.30;0.30;;;21.80;49.90;;;;;;6309082;28;20024;-66
2021/05/20 11:57:14;;;;;;;0.50;0.40;;;21.80;49.90;;;;;;6295389;28;20027;-66
2021/05/20 12:00:15;;;;;;;0.40;0.38;;;21.80;49.90;;;;;;6314950;28;20262;-66
2021/05/20 12:03:26;;;;;;;0.65;0.50;;;21.80;49.90;;;;;;6320478;28;20111;-66
2021/05/20 12:06:27;;;;;;;0.38;0.35;;;21.80;49.90;;;;;;6320761;28;20055;-66
2021/05/20 12:09:28;;;;;;;0.50;0.40;;;21.80;49.90;;;;;;6318803;28;20480;-67
2021/05/20 12:12:28;;;;;;;0.30;0.30;;;21.80;49.90;;;;;;6320675;28;20351;-66
2021/05/20 12:15:30;;;;;;;0.63;0.35;;;21.80;49.90;;;;;;6306666;28;20040;-65
2021/05/20 12:18:40;;;;;;;0.43;0.38;;;21.80;49.90;;;;;;6295431;28;20027;-65
2021/05/20 12:21:58;;;;;;;0.20;0.20;;;21.80;49.90;;;;;;6295462;28;20024;-65
2021/05/20 12:25:00;;;;;;;0.50;0.40;;;21.80;49.90;;;;;;6295505;28;20527;-65
2021/05/20 12:28:01;;;;;;;0.30;0.30;;;21.80;49.90;;;;;;6295614;28;20392;-65
2021/05/20 12:31:02;;;;;;;0.82;0.50;;;21.80;49.90;;;;;;6294826;28;20028;-65
2021/05/20 12:34:16;;;;;;;0.30;0.30;;;21.80;50.00;;;;;;6294973;28;20040;-65
2021/05/20 12:37:17;;;;;;;0.20;0.20;;;21.80;49.90;;;;;;6295324;28;20017;-65
2021/05/20 12:40:41;;;;;;;0.50;0.47;;;21.80;49.90;;;;;;6294960;28;20031;-65
2021/05/20 12:43:42;;;;;;;0.82;0.30;;;21.80;49.90;;;;;;6294468;28;20260;-65
2021/05/20 12:46:43;;;;;;;0.45;0.40;;;21.80;49.90;;;;;;6295160;28;20047;-65
2021/05/20 12:49:58;;;;;;;0.40;0.40;;;21.80;49.90;;;;;;6303579;28;20051;-65
2021/05/20 12:52:59;;;;;;;0.57;0.40;;;21.80;49.90;;;;;;6319927;28;20024;-65
2021/05/20 12:56:02;;;;;;;0.30;0.30;;;21.80;49.90;;;;;;6299700;28;20108;-65
2021/05/20 12:59:14;;;;;;;0.50;0.50;;;21.80;49.90;;;;;;6294295;28;20044;-65
2021/05/20 13:02:15;;;;;;;0.30;0.30;;;21.80;49.90;;;;;;6294857;28;20025;-65
2021/05/20 13:05:17;;;;;;;0.28;0.28;;;21.80;49.90;;;;;;6294481;28;20478;-65
2021/05/20 13:08:23;;;;;;;0.30;0.30;;;21.80;49.90;;;;;;6318297;28;20106;-65
2021/05/20 13:11:33;;;;;;;0.55;0.40;;;21.80;49.90;;;;;;6309010;28;20035;-65
2021/05/20 13:14:45;;;;;;;0.47;0.38;;;21.80;49.90;;;;;;6317458;28;20024;-65
2021/05/20 13:23:57;;;;;;;0.40;0.40;;;21.80;49.90;;;;;;6294188;28;20081;-65
2021/05/20 13:26:57;;;;;;;0.57;0.30;;;21.80;49.90;;;;;;6294430;28;20028;-65
2021/05/20 13:30:09;;;;;;;0.85;0.38;;;21.80;49.90;;;;;;6293289;28;20382;-65
2021/05/20 13:33:13;;;;;;;0.38;0.35;;;21.80;49.90;;;;;;6294046;28;20029;-65
2021/05/20 13:36:13;;;;;;;0.32;0.32;;;21.80;50.00;;;;;;6302029;28;20020;-65
2021/05/20 13:39:14;;;;;;;0.32;0.30;;;21.80;50.00;;;;;;6319031;28;20021;-65
2021/05/20 13:42:14;;;;;;;0.73;0.40;;;21.80;50.00;;;;;;6309772;28;20050;-65
2021/05/20 13:45:16;;;;;;;0.63;0.50;;;21.80;49.90;;;;;;6293940;28;20028;-65
2021/05/20 13:48:17;;;;;;;0.30;0.30;;;21.80;50.00;;;;;;6292805;28;20029;-65
2021/05/20 13:51:19;;;;;;;0.30;0.25;;;21.80;50.00;;;;;;6293815;28;20048;-65
2021/05/20 13:54:19;;;;;;;0.32;0.30;;;21.80;50.00;;;;;;6292387;28;20040;-65
2021/05/20 13:57:20;;;;;;;0.50;0.50;;;21.80;50.00;;;;;;6311434;28;20020;-65
2021/05/20 14:03:32;;;;;;;0.45;0.35;;;21.80;50.00;;;;;;6301420;28;20339;-65
2021/05/20 14:06:32;;;;;;;0.45;0.30;;;21.80;50.00;;;;;;6303107;28;20016;-65
2021/05/20 14:09:33;;;;;;;0.55;0.40;;;21.80;50.00;;;;;;6292313;28;20032;-65
2021/05/20 14:12:34;;;;;;;0.45;0.40;;;21.80;50.00;;;;;;6301056;28;20035;-66
2021/05/20 14:15:34;;;;;;;0.45;0.35;;;21.80;50.00;;;;;;6313521;28;20028;-65
2021/05/20 14:18:35;;;;;;;0.32;0.32;;;21.80;50.00;;;;;;6308382;28;20485;-65
2021/05/20 14:21:35;;;;;;;0.40;0.30;;;21.80;50.00;;;;;;6308117;28;20033;-65
2021/05/20 14:24:36;;;;;;;0.32;0.30;;;21.80;50.00;;;;;;6315826;28;20051;-66
2021/05/20 14:27:36;;;;;;;0.55;0.30;;;21.80;50.00;;;;;;6306280;28;20029;-65
2021/05/20 14:30:37;;;;;;;0.30;0.30;;;21.80;50.00;;;;;;6268459;28;20366;-66
2021/05/20 14:33:38;;;;;;;0.38;0.32;;;21.80;50.00;;;;;;6303521;28;20029;-66
2021/05/20 14:36:39;;;;;;;0.50;0.45;;;21.80;50.00;;;;;;6292351;28;20021;-66
2021/05/20 14:39:46;;;;;;;0.35;0.35;;;21.80;50.00;;;;;;6293008;28;20037;-66
2021/05/20 14:42:46;;;;;;;0.30;0.30;;;21.80;50.00;;;;;;6300536;28;20519;-66
2021/05/20 14:45:47;;;;;;;0.43;0.40;;;21.80;50.00;;;;;;6320948;28;20036;-66
2021/05/20 14:48:49;;;;;;;0.40;0.30;;;21.80;50.00;;;;;;6309709;28;20028;-66
2021/05/20 14:51:49;;;;;;;0.98;0.30;;;21.80;50.00;;;;;;6311336;28;20084;-65
2021/05/20 15:07:32;;;;;;;0.32;0.30;;;21.80;50.00;;;;;;6307194;28;20115;-65
2021/05/20 15:10:40;;;;;;;0.22;0.22;;;21.80;50.00;;;;;;6321174;28;20050;-65
2021/05/20 15:13:48;;;;;;;0.55;0.40;;;21.80;50.00;;;;;;6320786;28;20020;-66
2021/05/20 15:17:00;;;;;;;0.55;0.40;;;21.80;50.00;;;;;;6297527;28;20029;-66
2021/05/20 15:20:04;;;;;;;0.35;0.20;;;21.80;50.00;;;;;;6320988;28;20012;-66
2021/05/20 15:23:04;;;;;;;0.30;0.30;;;21.80;50.00;;;;;;6312985;28;20028;-66
2021/05/20 15:26:05;;;;;;;0.65;0.30;;;21.80;50.00;;;;;;6319292;28;20090;-66
2021/05/20 15:29:06;;;;;;;0.40;0.40;;;21.80;50.00;;;;;;6310177;28;20520;-65
2021/05/20 15:32:09;;;;;;;0.30;0.30;;;21.80;50.00;;;;;;6312552;28;20060;-65
2021/05/20 15:35:10;;;;;;;0.43;0.22;;;21.80;50.00;;;;;;6318863;28;20426;-65
2021/05/20 15:38:11;;;;;;;0.30;0.30;;;21.80;50.00;;;;;;6308030;28;20073;-65
2021/05/20 15:41:12;;;;;;;0.50;0.32;;;21.80;50.00;;;;;;6316679;28;20024;-66
2021/05/20 15:44:17;;;;;;;0.28;0.28;;;21.80;50.00;;;;;;6319727;28;20027;-65
2021/05/20 15:47:28;;;;;;;0.30;0.30;;;21.80;50.00;;;;;;6319076;28;20480;-65
2021/05/20 15:50:28;;;;;;;0.93;0.30;;;21.80;50.10;;;;;;6309144;28;20036;-65
2021/05/20 15:53:33;;;;;;;0.20;0.20;;;21.80;50.00;;;;;;6319105;28;20500;-66
2021/05/20 15:56:34;;;;;;;0.38;0.30;;;21.80;50.00;;;;;;6320209;28;20385;-66
2021/05/20 15:59:35;;;;;;;0.50;0.25;;;21.80;50.00;;;;;;6314418;28;20523;-66
2021/05/20 16:02:36;;;;;;;0.32;0.32;;;21.80;50.10;;;;;;6297685;28;20051;-66
2021/05/20 16:05:36;;;;;;;0.20;0.20;;;21.80;50.10;;;;;;6319173;28;20047;-66
2021/05/20 16:08:43;;;;;;;0.30;0.20;;;21.80;50.00;;;;;;6317784;28;20020;-65
2021/05/20 16:12:04;;;;;;;0.50;0.30;;;21.80;50.00;;;;;;6319862;28;20016;-66
2021/05/20 16:15:09;;;;;;;0.22;0.22;;;21.80;50.10;;;;;;6305798;28;20114;-65
2021/05/20 16:18:10;;;;;;;0.65;0.40;;;21.80;50.00;;;;;;6288591;28;20012;-66
2021/05/20 16:21:11;;;;;;;0.40;0.40;;;21.80;50.00;;;;;;6290936;28;20401;-66